sensor_id;sensor_type;location;lat;lon;timestamp;temperature;humidity
20446;DHT22;10382;49.140;9.234;2023-03-12T00:01:12;1.40;99.90
20446;DHT22;10382;49.140;9.234;2023-03-12T00:03:40;1.40;99.90
20446;DHT22;10382;49.140;9.234;2023-03-12T00:06:07;1.40;99.90
20446;DHT22;10382;49.140;9.234;2023-03-12T00:08:34;1.30;99.90
20446;DHT22;10382;49.140;9.234;2023-03-12T00:11:05;1.20;99.90
20446;DHT22;10382;49.140;9.234;2023-03-12T00:13:32;1.30;99.90
20446;DHT22;10382;49.140;9.234;2023-03-12T00:16:03;1.40;99.90
20446;DHT22;10382;49.140;9.234;2023-03-12T00:18:30;1.50;99.90
20446;DHT22;10382;49.140;9.234;2023-03-12T00:20:58;1.50;99.90
20446;DHT22;10382;49.140;9.234;2023-03-12T00:23:25;1.50;99.90
20446;DHT22;10382;49.140;9.234;2023-03-12T00:25:52;1.50;99.90
20446;DHT22;10382;49.140;9.234;2023-03-12T00:28:19;1.40;99.90
20446;DHT22;10382;49.140;9.234;2023-03-12T00:30:45;1.30;99.90
20446;DHT22;10382;49.140;9.234;2023-03-12T00:33:12;1.30;99.90
20446;DHT22;10382;49.140;9.234;2023-03-12T00:35:39;1.10;99.90
20446;DHT22;10382;49.140;9.234;2023-03-12T00:38:08;1.10;99.90
20446;DHT22;10382;49.140;9.234;2023-03-12T00:40:34;1.20;99.90
20446;DHT22;10382;49.140;9.234;2023-03-12T00:43:01;1.20;99.90
20446;DHT22;10382;49.140;9.234;2023-03-12T00:45:28;1.20;99.90
20446;DHT22;10382;49.140;9.234;2023-03-12T00:47:55;1.20;99.90
20446;DHT22;10382;49.140;9.234;2023-03-12T00:50:22;1.20;99.90
20446;DHT22;10382;49.140;9.234;2023-03-12T00:52:49;1.20;99.90
20446;DHT22;10382;49.140;9.234;2023-03-12T00:55:17;1.10;99.90
20446;DHT22;10382;49.140;9.234;2023-03-12T00:57:44;1.10;99.90
20446;DHT22;10382;49.140;9.234;2023-03-12T01:00:11;1.20;99.90
20446;DHT22;10382;49.140;9.234;2023-03-12T01:02:39;1.20;99.90
20446;DHT22;10382;49.140;9.234;2023-03-12T01:05:07;1.30;99.90
20446;DHT22;10382;49.140;9.234;2023-03-12T01:07:35;1.30;99.90
20446;DHT22;10382;49.140;9.234;2023-03-12T01:10:03;1.40;99.90
20446;DHT22;10382;49.140;9.234;2023-03-12T01:12:32;1.50;99.90
20446;DHT22;10382;49.140;9.234;2023-03-12T01:14:59;1.50;99.90
20446;DHT22;10382;49.140;9.234;2023-03-12T01:17:26;1.50;99.90
20446;DHT22;10382;49.140;9.234;2023-03-12T01:19:53;1.40;99.90
20446;DHT22;10382;49.140;9.234;2023-03-12T01:22:19;1.30;99.90
20446;DHT22;10382;49.140;9.234;2023-03-12T01:24:46;1.20;99.90
20446;DHT22;10382;49.140;9.234;2023-03-12T01:27:13;1.20;99.90
20446;DHT22;10382;49.140;9.234;2023-03-12T01:29:42;1.20;99.90
20446;DHT22;10382;49.140;9.234;2023-03-12T01:32:08;1.10;99.90
20446;DHT22;10382;49.140;9.234;2023-03-12T01:34:35;1.10;99.90
20446;DHT22;10382;49.140;9.234;2023-03-12T01:37:02;1.10;99.90
20446;DHT22;10382;49.140;9.234;2023-03-12T01:39:29;1.10;99.90
20446;DHT22;10382;49.140;9.234;2023-03-12T01:41:56;1.00;99.90
20446;DHT22;10382;49.140;9.234;2023-03-12T01:44:22;1.10;99.90
20446;DHT22;10382;49.140;9.234;2023-03-12T01:46:51;1.20;99.90
20446;DHT22;10382;49.140;9.234;2023-03-12T01:49:20;1.30;99.90
20446;DHT22;10382;49.140;9.234;2023-03-12T01:51:53;1.30;99.90
20446;DHT22;10382;49.140;9.234;2023-03-12T01:54:24;1.40;99.90
20446;DHT22;10382;49.140;9.234;2023-03-12T01:56:51;1.50;99.90
20446;DHT22;10382;49.140;9.234;2023-03-12T01:59:21;1.60;99.90
20446;DHT22;10382;49.140;9.234;2023-03-12T02:01:51;1.70;99.90
20446;DHT22;10382;49.140;9.234;2023-03-12T02:04:20;1.70;99.90
20446;DHT22;10382;49.140;9.234;2023-03-12T02:06:50;1.80;99.90
20446;DHT22;10382;49.140;9.234;2023-03-12T02:09:19;1.90;99.90
20446;DHT22;10382;49.140;9.234;2023-03-12T02:11:47;1.90;99.90
20446;DHT22;10382;49.140;9.234;2023-03-12T02:14:14;1.90;99.90
20446;DHT22;10382;49.140;9.234;2023-03-12T02:16:42;2.00;99.90
20446;DHT22;10382;49.140;9.234;2023-03-12T02:19:17;1.90;99.90
20446;DHT22;10382;49.140;9.234;2023-03-12T02:21:46;2.00;99.90
20446;DHT22;10382;49.140;9.234;2023-03-12T02:24:20;2.00;99.90
20446;DHT22;10382;49.140;9.234;2023-03-12T02:26:49;2.00;99.90
20446;DHT22;10382;49.140;9.234;2023-03-12T02:29:17;2.00;99.90
20446;DHT22;10382;49.140;9.234;2023-03-12T02:31:47;2.00;99.90
20446;DHT22;10382;49.140;9.234;2023-03-12T02:34:16;1.90;99.90
20446;DHT22;10382;49.140;9.234;2023-03-12T02:36:42;1.90;99.90
20446;DHT22;10382;49.140;9.234;2023-03-12T02:39:11;1.90;99.90
20446;DHT22;10382;49.140;9.234;2023-03-12T02:41:39;1.80;99.90
20446;DHT22;10382;49.140;9.234;2023-03-12T02:44:11;1.80;99.90
20446;DHT22;10382;49.140;9.234;2023-03-12T02:46:40;1.60;99.90
20446;DHT22;10382;49.140;9.234;2023-03-12T02:49:08;1.60;99.90
20446;DHT22;10382;49.140;9.234;2023-03-12T02:51:37;1.50;99.90
20446;DHT22;10382;49.140;9.234;2023-03-12T02:54:05;1.50;99.90
20446;DHT22;10382;49.140;9.234;2023-03-12T02:56:32;1.50;99.90
20446;DHT22;10382;49.140;9.234;2023-03-12T02:59:00;1.60;99.90
20446;DHT22;10382;49.140;9.234;2023-03-12T03:01:28;1.70;99.90
20446;DHT22;10382;49.140;9.234;2023-03-12T03:03:58;1.80;99.90
20446;DHT22;10382;49.140;9.234;2023-03-12T03:06:25;1.90;99.90
20446;DHT22;10382;49.140;9.234;2023-03-12T03:08:52;2.00;99.90
20446;DHT22;10382;49.140;9.234;2023-03-12T03:11:19;2.00;99.90
20446;DHT22;10382;49.140;9.234;2023-03-12T03:13:48;2.10;99.90
20446;DHT22;10382;49.140;9.234;2023-03-12T03:16:15;2.20;99.90
20446;DHT22;10382;49.140;9.234;2023-03-12T03:18:43;2.20;99.90
20446;DHT22;10382;49.140;9.234;2023-03-12T03:21:11;2.30;99.90
20446;DHT22;10382;49.140;9.234;2023-03-12T03:23:41;2.40;99.90
20446;DHT22;10382;49.140;9.234;2023-03-12T03:26:08;2.40;99.90
20446;DHT22;10382;49.140;9.234;2023-03-12T03:28:35;2.40;99.90
20446;DHT22;10382;49.140;9.234;2023-03-12T03:31:03;2.50;99.90
20446;DHT22;10382;49.140;9.234;2023-03-12T03:33:31;2.50;99.90
20446;DHT22;10382;49.140;9.234;2023-03-12T03:36:00;2.50;99.90
20446;DHT22;10382;49.140;9.234;2023-03-12T03:38:28;2.50;99.90
20446;DHT22;10382;49.140;9.234;2023-03-12T03:40:55;2.60;99.90
20446;DHT22;10382;49.140;9.234;2023-03-12T03:43:23;2.60;99.90
20446;DHT22;10382;49.140;9.234;2023-03-12T03:45:56;2.70;99.90
20446;DHT22;10382;49.140;9.234;2023-03-12T03:48:23;2.70;99.90
20446;DHT22;10382;49.140;9.234;2023-03-12T03:50:50;2.70;99.90
20446;DHT22;10382;49.140;9.234;2023-03-12T03:53:18;2.70;99.90
20446;DHT22;10382;49.140;9.234;2023-03-12T03:55:46;2.80;99.90
20446;DHT22;10382;49.140;9.234;2023-03-12T03:58:13;2.80;99.90
20446;DHT22;10382;49.140;9.234;2023-03-12T04:00:40;2.70;99.90
20446;DHT22;10382;49.140;9.234;2023-03-12T04:03:09;2.60;99.90
20446;DHT22;10382;49.140;9.234;2023-03-12T04:05:36;2.50;99.90
20446;DHT22;10382;49.140;9.234;2023-03-12T04:08:03;2.50;99.90
20446;DHT22;10382;49.140;9.234;2023-03-12T04:10:31;2.50;99.90
20446;DHT22;10382;49.140;9.234;2023-03-12T04:12:58;2.50;99.90
20446;DHT22;10382;49.140;9.234;2023-03-12T04:15:25;2.50;99.90
20446;DHT22;10382;49.140;9.234;2023-03-12T04:17:52;2.60;99.90
20446;DHT22;10382;49.140;9.234;2023-03-12T04:20:19;2.60;99.90
20446;DHT22;10382;49.140;9.234;2023-03-12T04:22:46;2.70;99.90
20446;DHT22;10382;49.140;9.234;2023-03-12T04:25:13;2.80;99.90
20446;DHT22;10382;49.140;9.234;2023-03-12T04:27:41;2.90;99.90
20446;DHT22;10382;49.140;9.234;2023-03-12T04:30:09;2.90;99.90
20446;DHT22;10382;49.140;9.234;2023-03-12T04:32:36;3.00;99.90
20446;DHT22;10382;49.140;9.234;2023-03-12T04:35:03;3.00;99.90
20446;DHT22;10382;49.140;9.234;2023-03-12T04:37:31;3.10;99.90
20446;DHT22;10382;49.140;9.234;2023-03-12T04:39:59;3.10;99.90
20446;DHT22;10382;49.140;9.234;2023-03-12T04:42:26;3.20;99.90
20446;DHT22;10382;49.140;9.234;2023-03-12T04:44:54;3.20;99.90
20446;DHT22;10382;49.140;9.234;2023-03-12T04:47:21;3.30;99.90
20446;DHT22;10382;49.140;9.234;2023-03-12T04:49:48;3.30;99.90
20446;DHT22;10382;49.140;9.234;2023-03-12T04:52:15;3.40;99.90
20446;DHT22;10382;49.140;9.234;2023-03-12T04:54:42;3.30;99.90
20446;DHT22;10382;49.140;9.234;2023-03-12T04:57:09;3.10;99.90
20446;DHT22;10382;49.140;9.234;2023-03-12T04:59:36;2.90;99.90
20446;DHT22;10382;49.140;9.234;2023-03-12T05:02:05;2.80;99.90
20446;DHT22;10382;49.140;9.234;2023-03-12T05:04:31;2.60;99.90
20446;DHT22;10382;49.140;9.234;2023-03-12T05:06:58;2.50;99.90
20446;DHT22;10382;49.140;9.234;2023-03-12T05:09:25;2.50;99.90
20446;DHT22;10382;49.140;9.234;2023-03-12T05:11:52;2.60;99.90
20446;DHT22;10382;49.140;9.234;2023-03-12T05:14:19;2.60;99.90
20446;DHT22;10382;49.140;9.234;2023-03-12T05:16:46;2.70;99.90
20446;DHT22;10382;49.140;9.234;2023-03-12T05:19:14;2.80;99.90
20446;DHT22;10382;49.140;9.234;2023-03-12T05:21:41;2.90;99.90
20446;DHT22;10382;49.140;9.234;2023-03-12T05:24:09;3.00;99.90
20446;DHT22;10382;49.140;9.234;2023-03-12T05:26:36;3.10;99.90
20446;DHT22;10382;49.140;9.234;2023-03-12T05:29:04;3.20;99.90
20446;DHT22;10382;49.140;9.234;2023-03-12T05:31:31;3.20;99.90
20446;DHT22;10382;49.140;9.234;2023-03-12T05:34:00;3.40;99.90
20446;DHT22;10382;49.140;9.234;2023-03-12T05:36:28;3.40;99.90
20446;DHT22;10382;49.140;9.234;2023-03-12T05:38:55;3.40;99.90
20446;DHT22;10382;49.140;9.234;2023-03-12T05:41:24;3.40;99.90
20446;DHT22;10382;49.140;9.234;2023-03-12T05:43:51;3.40;99.90
20446;DHT22;10382;49.140;9.234;2023-03-12T05:46:18;3.50;99.90
20446;DHT22;10382;49.140;9.234;2023-03-12T05:48:45;3.50;99.90
20446;DHT22;10382;49.140;9.234;2023-03-12T05:51:12;3.50;99.90
20446;DHT22;10382;49.140;9.234;2023-03-12T05:53:41;3.60;99.90
20446;DHT22;10382;49.140;9.234;2023-03-12T05:56:11;3.60;99.90
20446;DHT22;10382;49.140;9.234;2023-03-12T05:58:38;3.60;99.90
20446;DHT22;10382;49.140;9.234;2023-03-12T06:01:11;3.70;99.90
20446;DHT22;10382;49.140;9.234;2023-03-12T06:03:38;3.70;99.90
20446;DHT22;10382;49.140;9.234;2023-03-12T06:06:05;3.70;99.90
20446;DHT22;10382;49.140;9.234;2023-03-12T06:08:31;3.80;99.90
20446;DHT22;10382;49.140;9.234;2023-03-12T06:11:00;3.80;99.90
20446;DHT22;10382;49.140;9.234;2023-03-12T06:13:26;3.90;99.90
20446;DHT22;10382;49.140;9.234;2023-03-12T06:15:53;4.00;99.90
20446;DHT22;10382;49.140;9.234;2023-03-12T06:18:20;4.00;99.90
20446;DHT22;10382;49.140;9.234;2023-03-12T06:20:47;4.00;99.90
20446;DHT22;10382;49.140;9.234;2023-03-12T06:23:14;4.00;99.90
20446;DHT22;10382;49.140;9.234;2023-03-12T06:25:43;4.10;99.90
20446;DHT22;10382;49.140;9.234;2023-03-12T06:28:12;4.10;99.90
20446;DHT22;10382;49.140;9.234;2023-03-12T06:30:38;4.10;99.90
20446;DHT22;10382;49.140;9.234;2023-03-12T06:33:05;4.20;99.90
20446;DHT22;10382;49.140;9.234;2023-03-12T06:35:33;4.20;99.90
20446;DHT22;10382;49.140;9.234;2023-03-12T06:38:00;4.20;99.90
20446;DHT22;10382;49.140;9.234;2023-03-12T06:40:27;4.20;99.90
20446;DHT22;10382;49.140;9.234;2023-03-12T06:42:54;4.30;99.90
20446;DHT22;10382;49.140;9.234;2023-03-12T06:45:22;4.30;99.90
20446;DHT22;10382;49.140;9.234;2023-03-12T06:47:49;4.30;99.90
20446;DHT22;10382;49.140;9.234;2023-03-12T06:50:16;4.40;99.90
20446;DHT22;10382;49.140;9.234;2023-03-12T06:52:43;4.40;99.90
20446;DHT22;10382;49.140;9.234;2023-03-12T06:55:10;4.50;99.90
20446;DHT22;10382;49.140;9.234;2023-03-12T06:57:36;4.50;99.90
20446;DHT22;10382;49.140;9.234;2023-03-12T07:00:04;4.50;99.90
20446;DHT22;10382;49.140;9.234;2023-03-12T07:02:33;4.50;99.90
20446;DHT22;10382;49.140;9.234;2023-03-12T07:05:00;4.50;99.90
20446;DHT22;10382;49.140;9.234;2023-03-12T07:07:27;4.60;99.90
20446;DHT22;10382;49.140;9.234;2023-03-12T07:09:54;4.60;99.90
20446;DHT22;10382;49.140;9.234;2023-03-12T07:12:21;4.70;99.90
20446;DHT22;10382;49.140;9.234;2023-03-12T07:14:48;4.70;99.90
20446;DHT22;10382;49.140;9.234;2023-03-12T07:17:14;4.70;99.90
20446;DHT22;10382;49.140;9.234;2023-03-12T07:19:43;4.80;99.90
20446;DHT22;10382;49.140;9.234;2023-03-12T07:22:09;4.80;99.90
20446;DHT22;10382;49.140;9.234;2023-03-12T07:24:36;4.80;99.90
20446;DHT22;10382;49.140;9.234;2023-03-12T07:27:03;4.90;99.90
20446;DHT22;10382;49.140;9.234;2023-03-12T07:29:30;5.00;99.90
20446;DHT22;10382;49.140;9.234;2023-03-12T07:31:57;5.10;99.90
20446;DHT22;10382;49.140;9.234;2023-03-12T07:34:24;5.10;99.90
20446;DHT22;10382;49.140;9.234;2023-03-12T07:36:52;5.20;99.90
20446;DHT22;10382;49.140;9.234;2023-03-12T07:39:19;5.30;99.90
20446;DHT22;10382;49.140;9.234;2023-03-12T07:41:46;5.30;99.90
20446;DHT22;10382;49.140;9.234;2023-03-12T07:44:13;5.40;99.90
20446;DHT22;10382;49.140;9.234;2023-03-12T07:46:40;5.50;99.90
20446;DHT22;10382;49.140;9.234;2023-03-12T07:49:07;5.50;99.90
20446;DHT22;10382;49.140;9.234;2023-03-12T07:51:34;5.60;99.90
20446;DHT22;10382;49.140;9.234;2023-03-12T07:54:02;5.70;99.90
20446;DHT22;10382;49.140;9.234;2023-03-12T07:56:29;5.70;99.90
20446;DHT22;10382;49.140;9.234;2023-03-12T07:58:56;5.90;99.90
20446;DHT22;10382;49.140;9.234;2023-03-12T08:01:23;6.00;99.90
20446;DHT22;10382;49.140;9.234;2023-03-12T08:03:56;6.10;99.90
20446;DHT22;10382;49.140;9.234;2023-03-12T08:06:23;6.20;99.90
20446;DHT22;10382;49.140;9.234;2023-03-12T08:08:50;6.20;99.90
20446;DHT22;10382;49.140;9.234;2023-03-12T08:11:18;6.30;99.90
20446;DHT22;10382;49.140;9.234;2023-03-12T08:13:45;6.50;99.90
20446;DHT22;10382;49.140;9.234;2023-03-12T08:16:11;6.50;99.90
20446;DHT22;10382;49.140;9.234;2023-03-12T08:18:39;6.60;99.90
20446;DHT22;10382;49.140;9.234;2023-03-12T08:21:07;6.70;99.90
20446;DHT22;10382;49.140;9.234;2023-03-12T08:23:34;6.80;99.90
20446;DHT22;10382;49.140;9.234;2023-03-12T08:26:01;6.80;99.90
20446;DHT22;10382;49.140;9.234;2023-03-12T08:31:08;6.80;99.90
20446;DHT22;10382;49.140;9.234;2023-03-12T08:33:35;6.70;99.90
20446;DHT22;10382;49.140;9.234;2023-03-12T08:36:06;6.80;99.90
20446;DHT22;10382;49.140;9.234;2023-03-12T08:38:33;6.90;99.90
20446;DHT22;10382;49.140;9.234;2023-03-12T08:41:00;6.90;99.90
20446;DHT22;10382;49.140;9.234;2023-03-12T08:43:28;7.00;99.90
20446;DHT22;10382;49.140;9.234;2023-03-12T08:45:55;7.20;99.90
20446;DHT22;10382;49.140;9.234;2023-03-12T08:48:24;7.40;99.90
20446;DHT22;10382;49.140;9.234;2023-03-12T08:50:53;7.60;99.90
20446;DHT22;10382;49.140;9.234;2023-03-12T08:53:20;7.70;99.90
20446;DHT22;10382;49.140;9.234;2023-03-12T08:55:47;7.70;99.90
20446;DHT22;10382;49.140;9.234;2023-03-12T08:58:14;7.70;99.90
20446;DHT22;10382;49.140;9.234;2023-03-12T09:00:41;7.80;99.90
20446;DHT22;10382;49.140;9.234;2023-03-12T09:03:08;7.80;99.90
20446;DHT22;10382;49.140;9.234;2023-03-12T09:05:39;7.90;99.90
20446;DHT22;10382;49.140;9.234;2023-03-12T09:08:07;8.00;99.90
20446;DHT22;10382;49.140;9.234;2023-03-12T09:10:34;8.10;99.90
20446;DHT22;10382;49.140;9.234;2023-03-12T09:13:02;8.10;99.90
20446;DHT22;10382;49.140;9.234;2023-03-12T09:15:29;8.10;99.90
20446;DHT22;10382;49.140;9.234;2023-03-12T09:17:56;8.00;99.90
20446;DHT22;10382;49.140;9.234;2023-03-12T09:20:23;8.00;99.90
20446;DHT22;10382;49.140;9.234;2023-03-12T09:22:52;8.00;99.90
20446;DHT22;10382;49.140;9.234;2023-03-12T09:25:19;8.00;99.90
20446;DHT22;10382;49.140;9.234;2023-03-12T09:27:48;8.10;99.90
20446;DHT22;10382;49.140;9.234;2023-03-12T09:30:16;8.20;99.90
20446;DHT22;10382;49.140;9.234;2023-03-12T09:32:43;8.20;99.90
20446;DHT22;10382;49.140;9.234;2023-03-12T09:35:11;8.10;99.90
20446;DHT22;10382;49.140;9.234;2023-03-12T09:37:38;8.10;99.90
20446;DHT22;10382;49.140;9.234;2023-03-12T09:40:10;8.20;99.90
20446;DHT22;10382;49.140;9.234;2023-03-12T09:42:45;8.20;99.90
20446;DHT22;10382;49.140;9.234;2023-03-12T09:45:16;8.00;99.90
20446;DHT22;10382;49.140;9.234;2023-03-12T09:47:48;7.80;99.90
20446;DHT22;10382;49.140;9.234;2023-03-12T09:50:20;7.50;99.90
20446;DHT22;10382;49.140;9.234;2023-03-12T09:52:51;7.20;99.90
20446;DHT22;10382;49.140;9.234;2023-03-12T09:55:21;7.00;99.90
20446;DHT22;10382;49.140;9.234;2023-03-12T09:57:49;6.60;99.90
20446;DHT22;10382;49.140;9.234;2023-03-12T10:00:19;6.40;99.90
20446;DHT22;10382;49.140;9.234;2023-03-12T10:03:12;6.40;99.90
20446;DHT22;10382;49.140;9.234;2023-03-12T10:05:45;6.40;99.90
20446;DHT22;10382;49.140;9.234;2023-03-12T10:08:16;6.40;99.90
20446;DHT22;10382;49.140;9.234;2023-03-12T10:10:52;6.40;99.90
20446;DHT22;10382;49.140;9.234;2023-03-12T10:13:34;6.50;99.90
20446;DHT22;10382;49.140;9.234;2023-03-12T10:16:14;6.50;99.90
20446;DHT22;10382;49.140;9.234;2023-03-12T10:18:59;6.60;99.90
20446;DHT22;10382;49.140;9.234;2023-03-12T10:21:35;6.70;99.90
20446;DHT22;10382;49.140;9.234;2023-03-12T10:24:19;6.80;99.90
20446;DHT22;10382;49.140;9.234;2023-03-12T10:26:51;6.80;99.90
20446;DHT22;10382;49.140;9.234;2023-03-12T10:29:22;6.70;99.90
20446;DHT22;10382;49.140;9.234;2023-03-12T10:31:53;6.70;99.90
20446;DHT22;10382;49.140;9.234;2023-03-12T10:34:27;6.40;99.90
20446;DHT22;10382;49.140;9.234;2023-03-12T10:36:58;6.40;99.90
20446;DHT22;10382;49.140;9.234;2023-03-12T10:39:25;6.30;99.90
20446;DHT22;10382;49.140;9.234;2023-03-12T10:41:54;6.40;99.90
20446;DHT22;10382;49.140;9.234;2023-03-12T10:44:24;6.50;99.90
20446;DHT22;10382;49.140;9.234;2023-03-12T10:46:58;6.60;99.90
20446;DHT22;10382;49.140;9.234;2023-03-12T10:49:28;6.80;99.90
20446;DHT22;10382;49.140;9.234;2023-03-12T10:51:57;6.90;99.90
20446;DHT22;10382;49.140;9.234;2023-03-12T10:54:30;7.00;99.90
20446;DHT22;10382;49.140;9.234;2023-03-12T10:56:59;7.10;99.90
20446;DHT22;10382;49.140;9.234;2023-03-12T10:59:29;7.30;99.90
20446;DHT22;10382;49.140;9.234;2023-03-12T11:01:57;7.30;99.90
20446;DHT22;10382;49.140;9.234;2023-03-12T11:04:25;7.40;99.90
20446;DHT22;10382;49.140;9.234;2023-03-12T11:07:05;7.60;99.90
20446;DHT22;10382;49.140;9.234;2023-03-12T11:09:32;7.70;99.90
20446;DHT22;10382;49.140;9.234;2023-03-12T11:12:00;7.90;99.90
20446;DHT22;10382;49.140;9.234;2023-03-12T11:14:28;8.20;99.90
20446;DHT22;10382;49.140;9.234;2023-03-12T11:16:56;8.40;99.90
20446;DHT22;10382;49.140;9.234;2023-03-12T11:19:40;8.40;99.90
20446;DHT22;10382;49.140;9.234;2023-03-12T11:22:08;8.50;99.90
20446;DHT22;10382;49.140;9.234;2023-03-12T11:24:54;8.70;99.90
20446;DHT22;10382;49.140;9.234;2023-03-12T11:27:29;8.90;99.90
20446;DHT22;10382;49.140;9.234;2023-03-12T11:29:58;9.10;99.90
20446;DHT22;10382;49.140;9.234;2023-03-12T11:32:31;9.10;99.90
20446;DHT22;10382;49.140;9.234;2023-03-12T11:34:59;9.00;99.90
20446;DHT22;10382;49.140;9.234;2023-03-12T11:37:35;8.90;99.90
20446;DHT22;10382;49.140;9.234;2023-03-12T11:40:16;8.90;99.90
20446;DHT22;10382;49.140;9.234;2023-03-12T11:43:09;9.00;99.90
20446;DHT22;10382;49.140;9.234;2023-03-12T11:45:59;9.10;99.90
20446;DHT22;10382;49.140;9.234;2023-03-12T11:48:37;8.90;99.90
20446;DHT22;10382;49.140;9.234;2023-03-12T11:51:16;8.90;99.90
20446;DHT22;10382;49.140;9.234;2023-03-12T11:53:58;8.80;99.90
20446;DHT22;10382;49.140;9.234;2023-03-12T11:56:33;8.80;99.90
20446;DHT22;10382;49.140;9.234;2023-03-12T11:59:13;9.00;99.90
20446;DHT22;10382;49.140;9.234;2023-03-12T12:01:52;9.20;99.90
20446;DHT22;10382;49.140;9.234;2023-03-12T12:04:38;9.30;99.90
20446;DHT22;10382;49.140;9.234;2023-03-12T12:07:16;9.40;99.90
20446;DHT22;10382;49.140;9.234;2023-03-12T12:09:49;9.50;99.90
20446;DHT22;10382;49.140;9.234;2023-03-12T12:12:33;9.70;99.90
20446;DHT22;10382;49.140;9.234;2023-03-12T12:15:12;9.90;99.90
20446;DHT22;10382;49.140;9.234;2023-03-12T12:17:50;10.20;99.90
20446;DHT22;10382;49.140;9.234;2023-03-12T12:20:28;10.50;99.90
20446;DHT22;10382;49.140;9.234;2023-03-12T12:23:15;10.70;99.90
20446;DHT22;10382;49.140;9.234;2023-03-12T12:25:56;10.70;99.90
20446;DHT22;10382;49.140;9.234;2023-03-12T12:28:47;10.70;99.90
20446;DHT22;10382;49.140;9.234;2023-03-12T12:31:29;10.90;99.90
20446;DHT22;10382;49.140;9.234;2023-03-12T12:37:11;11.40;99.90
20446;DHT22;10382;49.140;9.234;2023-03-12T12:39:44;11.80;99.90
20446;DHT22;10382;49.140;9.234;2023-03-12T12:42:15;12.00;99.90
20446;DHT22;10382;49.140;9.234;2023-03-12T12:44:47;12.30;99.90
20446;DHT22;10382;49.140;9.234;2023-03-12T12:47:21;12.40;99.90
20446;DHT22;10382;49.140;9.234;2023-03-12T12:49:55;12.60;99.90
20446;DHT22;10382;49.140;9.234;2023-03-12T12:52:23;12.60;99.90
20446;DHT22;10382;49.140;9.234;2023-03-12T12:54:56;12.70;99.90
20446;DHT22;10382;49.140;9.234;2023-03-12T12:57:30;12.70;99.90
20446;DHT22;10382;49.140;9.234;2023-03-12T13:03:03;12.80;99.90
20446;DHT22;10382;49.140;9.234;2023-03-12T13:05:43;13.00;99.90
20446;DHT22;10382;49.140;9.234;2023-03-12T13:08:30;13.10;99.90
20446;DHT22;10382;49.140;9.234;2023-03-12T13:10:58;13.10;99.90
20446;DHT22;10382;49.140;9.234;2023-03-12T13:13:25;13.20;99.90
20446;DHT22;10382;49.140;9.234;2023-03-12T13:16:29;13.30;99.90
20446;DHT22;10382;49.140;9.234;2023-03-12T13:19:02;13.30;99.90
20446;DHT22;10382;49.140;9.234;2023-03-12T13:21:35;13.30;99.90
20446;DHT22;10382;49.140;9.234;2023-03-12T13:24:15;13.40;99.90
20446;DHT22;10382;49.140;9.234;2023-03-12T13:26:55;13.30;99.90
20446;DHT22;10382;49.140;9.234;2023-03-12T13:29:36;13.40;99.90
20446;DHT22;10382;49.140;9.234;2023-03-12T13:32:07;13.20;99.90
20446;DHT22;10382;49.140;9.234;2023-03-12T13:34:46;12.90;99.90
20446;DHT22;10382;49.140;9.234;2023-03-12T13:40:51;12.80;99.90
20446;DHT22;10382;49.140;9.234;2023-03-12T13:52:00;13.90;99.90
20446;DHT22;10382;49.140;9.234;2023-03-12T13:54:31;15.70;99.90
20446;DHT22;10382;49.140;9.234;2023-03-12T13:57:02;17.60;99.90
20446;DHT22;10382;49.140;9.234;2023-03-12T13:59:30;18.40;99.90
20446;DHT22;10382;49.140;9.234;2023-03-12T14:02:04;18.40;99.90
20446;DHT22;10382;49.140;9.234;2023-03-12T14:04:35;17.20;99.90
20446;DHT22;10382;49.140;9.234;2023-03-12T14:07:22;15.70;99.90
20446;DHT22;10382;49.140;9.234;2023-03-12T14:10:01;14.30;99.90
20446;DHT22;10382;49.140;9.234;2023-03-12T14:12:36;13.50;99.90
20446;DHT22;10382;49.140;9.234;2023-03-12T14:15:22;13.10;99.90
20446;DHT22;10382;49.140;9.234;2023-03-12T14:17:55;12.90;99.90
20446;DHT22;10382;49.140;9.234;2023-03-12T14:20:23;12.80;99.90
20446;DHT22;10382;49.140;9.234;2023-03-12T14:22:54;12.80;99.90
20446;DHT22;10382;49.140;9.234;2023-03-12T14:25:30;12.90;99.90
20446;DHT22;10382;49.140;9.234;2023-03-12T14:27:59;13.20;99.90
20446;DHT22;10382;49.140;9.234;2023-03-12T14:30:35;13.50;99.90
20446;DHT22;10382;49.140;9.234;2023-03-12T14:33:03;13.90;99.90
20446;DHT22;10382;49.140;9.234;2023-03-12T14:35:33;14.00;99.90
20446;DHT22;10382;49.140;9.234;2023-03-12T14:38:06;14.00;99.90
20446;DHT22;10382;49.140;9.234;2023-03-12T14:40:40;14.10;99.90
20446;DHT22;10382;49.140;9.234;2023-03-12T14:43:20;14.00;99.90
20446;DHT22;10382;49.140;9.234;2023-03-12T14:45:53;13.70;99.90
20446;DHT22;10382;49.140;9.234;2023-03-12T14:48:21;13.40;99.90
20446;DHT22;10382;49.140;9.234;2023-03-12T14:50:48;13.20;99.90
20446;DHT22;10382;49.140;9.234;2023-03-12T14:53:20;13.20;99.90
20446;DHT22;10382;49.140;9.234;2023-03-12T14:56:01;13.20;99.90
20446;DHT22;10382;49.140;9.234;2023-03-12T14:58:29;13.10;99.90
20446;DHT22;10382;49.140;9.234;2023-03-12T15:00:58;13.20;99.90
20446;DHT22;10382;49.140;9.234;2023-03-12T15:03:26;13.20;99.90
20446;DHT22;10382;49.140;9.234;2023-03-12T15:05:54;13.30;99.90
20446;DHT22;10382;49.140;9.234;2023-03-12T15:08:23;13.20;99.90
20446;DHT22;10382;49.140;9.234;2023-03-12T15:10:53;13.20;99.90
20446;DHT22;10382;49.140;9.234;2023-03-12T15:13:21;13.40;99.90
20446;DHT22;10382;49.140;9.234;2023-03-12T15:15:50;13.50;99.90
20446;DHT22;10382;49.140;9.234;2023-03-12T15:18:20;13.40;99.90
20446;DHT22;10382;49.140;9.234;2023-03-12T15:20:48;13.60;99.90
20446;DHT22;10382;49.140;9.234;2023-03-12T15:23:17;13.70;99.90
20446;DHT22;10382;49.140;9.234;2023-03-12T15:25:46;13.60;99.90
20446;DHT22;10382;49.140;9.234;2023-03-12T15:28:27;13.40;99.90
20446;DHT22;10382;49.140;9.234;2023-03-12T15:31:05;13.20;99.90
20446;DHT22;10382;49.140;9.234;2023-03-12T15:33:32;13.20;99.90
20446;DHT22;10382;49.140;9.234;2023-03-12T15:36:02;13.20;99.90
20446;DHT22;10382;49.140;9.234;2023-03-12T15:38:29;13.00;99.90
20446;DHT22;10382;49.140;9.234;2023-03-12T15:41:02;12.90;99.90
20446;DHT22;10382;49.140;9.234;2023-03-12T15:43:32;12.90;99.90
20446;DHT22;10382;49.140;9.234;2023-03-12T15:46:01;12.80;99.90
20446;DHT22;10382;49.140;9.234;2023-03-12T15:48:31;12.80;99.90
20446;DHT22;10382;49.140;9.234;2023-03-12T15:50:59;12.80;99.90
20446;DHT22;10382;49.140;9.234;2023-03-12T15:53:28;12.70;99.90
20446;DHT22;10382;49.140;9.234;2023-03-12T15:56:17;12.60;99.90
20446;DHT22;10382;49.140;9.234;2023-03-12T15:58:46;12.60;99.90
20446;DHT22;10382;49.140;9.234;2023-03-12T16:01:14;12.60;99.90
20446;DHT22;10382;49.140;9.234;2023-03-12T16:03:44;12.60;99.90
20446;DHT22;10382;49.140;9.234;2023-03-12T16:06:12;12.60;99.90
20446;DHT22;10382;49.140;9.234;2023-03-12T16:08:43;12.70;99.90
20446;DHT22;10382;49.140;9.234;2023-03-12T16:11:14;12.70;99.90
20446;DHT22;10382;49.140;9.234;2023-03-12T16:13:42;12.80;99.90
20446;DHT22;10382;49.140;9.234;2023-03-12T16:16:12;12.80;99.90
20446;DHT22;10382;49.140;9.234;2023-03-12T16:18:39;12.70;99.90
20446;DHT22;10382;49.140;9.234;2023-03-12T16:21:07;12.60;99.90